Time;durP1;ratioP1;P1;durP2;ratioP2;P2;SDS_P1;SDS_P2;PMS_P1;PMS_P2;Temp;Humidity;BMP_temperature;BMP_pressure;BME280_temperature;BME280_humidity;BME280_pressure;Samples;Min_cycle;Max_cycle;Signal;HPM_P1;HPM_P2
2022/08/13 00:01:21;;;;;;;27.65;8.98;;;;;;;18.94;70.55;100224.56;5109774;28;20058;-48
2022/08/13 00:03:49;;;;;;;16.55;8.60;;;;;;;18.91;70.81;100224.75;5107637;28;20046;-48
2022/08/13 00:06:22;;;;;;;29.58;8.90;;;;;;;18.89;71.20;100217.88;5110987;28;20510;-48
2022/08/13 00:08:48;;;;;;;18.13;8.38;;;;;;;18.87;71.27;100217.97;5108848;28;20048;-50
2022/08/13 00:12:56;;;;;;;24.23;9.18;;;;;;;18.85;71.52;100211.06;5109647;28;20443;-47
2022/08/13 00:14:00;;;;;;;19.23;8.25;;;;;;;18.84;71.54;100214.69;5109115;28;20078;-47
2022/08/13 00:16:26;;;;;;;19.50;8.00;;;;;;;18.82;71.80;100209.50;5110605;28;20035;-46
2022/08/13 00:18:52;;;;;;;15.45;8.68;;;;;;;18.82;71.96;100221.81;5110693;28;20099;-49
2022/08/13 00:21:18;;;;;;;19.17;8.75;;;;;;;18.78;72.11;100213.25;5110857;28;20035;-45
2022/08/13 00:23:44;;;;;;;17.17;7.70;;;;;;;18.75;72.31;100217.84;5109303;28;20529;-46
2022/08/13 00:26:11;;;;;;;21.13;8.88;;;;;;;18.73;72.62;100227.63;5110422;28;20047;-48
2022/08/13 00:28:37;;;;;;;17.17;8.75;;;;;;;18.69;72.98;100223.47;5110614;28;20039;-47
2022/08/13 00:31:05;;;;;;;16.10;8.68;;;;;;;18.65;72.98;100212.28;5110332;28;20036;-48
2022/08/13 00:33:31;;;;;;;17.42;7.63;;;;;;;18.66;73.15;100213.13;5109347;28;20047;-51
2022/08/13 00:35:57;;;;;;;16.45;7.82;;;;;;;18.59;73.25;100205.56;5109103;28;20051;-48
2022/08/13 00:38:28;;;;;;;16.13;8.50;;;;;;;18.61;73.34;100210.75;5109180;28;20035;-48
2022/08/13 00:40:57;;;;;;;15.23;7.47;;;;;;;18.58;73.55;100214.41;5109059;28;20036;-47
2022/08/13 00:43:24;;;;;;;18.90;8.35;;;;;;;18.55;73.58;100209.34;5110332;28;20421;-48
2022/08/13 00:45:50;;;;;;;18.73;7.82;;;;;;;18.53;73.69;100207.69;5109287;28;20168;-48
2022/08/13 00:51:01;;;;;;;19.80;7.75;;;;;;;18.48;73.93;100204.47;5108271;28;20443;-45
2022/08/13 00:53:28;;;;;;;21.35;8.18;;;;;;;18.45;74.36;100208.16;5108629;28;20073;-50
2022/08/13 00:55:56;;;;;;;21.75;8.38;;;;;;;18.43;74.45;100209.16;5083682;28;20063;-49
2022/08/13 00:58:23;;;;;;;22.38;9.10;;;;;;;18.40;74.65;100202.31;5109179;28;20044;-49
2022/08/13 01:00:51;;;;;;;20.40;7.75;;;;;;;18.40;74.82;100202.31;5108995;28;20423;-47
2022/08/13 01:03:18;;;;;;;17.75;8.18;;;;;;;18.23;74.72;100178.72;5110477;28;20036;-47
2022/08/13 01:05:46;;;;;;;16.35;7.90;;;;;;;18.39;74.74;100207.66;5109479;28;20039;-47
2022/08/13 01:08:16;;;;;;;17.35;7.78;;;;;;;18.38;75.17;100201.53;5109216;28;20046;-46
2022/08/13 01:10:44;;;;;;;17.83;8.07;;;;;;;18.36;75.17;100202.56;5110564;28;20128;-52
2022/08/13 01:13:11;;;;;;;18.55;8.18;;;;;;;18.36;75.26;100194.69;5109478;28;20040;-47
2022/08/13 01:15:39;;;;;;;22.30;8.55;;;;;;;18.32;75.51;100191.34;5109294;28;20050;-47
2022/08/13 01:18:13;;;;;;;16.33;7.80;;;;;;;18.16;75.51;100172.97;5110623;28;20077;-49
2022/08/13 01:21:02;;;;;;;17.08;7.78;;;;;;;18.30;76.00;100201.16;5110394;28;20066;-50
2022/08/13 01:23:31;;;;;;;17.42;7.90;;;;;;;18.26;75.95;100197.00;5109366;28;20537;-46
2022/08/13 01:25:59;;;;;;;20.20;9.05;;;;;;;18.22;75.93;100198.09;5110548;28;20054;-46
2022/08/13 01:28:29;;;;;;;13.97;7.90;;;;;;;18.24;76.34;100200.63;5110570;28;20047;-46
2022/08/13 01:30:58;;;;;;;16.23;7.45;;;;;;;18.20;76.47;100197.34;5110291;28;20047;-46
2022/08/13 01:33:24;;;;;;;16.73;7.85;;;;;;;18.20;76.67;100192.94;5110597;28;20048;-47
2022/08/13 01:35:52;;;;;;;16.90;8.43;;;;;;;18.20;76.93;100202.59;5110303;28;20036;-47
2022/08/13 01:38:20;;;;;;;20.08;8.20;;;;;;;18.11;76.94;100184.69;5110402;28;20399;-48
2022/08/13 01:40:48;;;;;;;24.47;8.80;;;;;;;18.16;77.15;100193.19;5110419;28;20100;-47
2022/08/13 01:43:15;;;;;;;19.35;8.30;;;;;;;18.14;77.27;100197.69;5108686;28;20039;-46
2022/08/13 01:45:43;;;;;;;19.20;9.23;;;;;;;18.13;77.54;100196.84;5109034;28;20092;-46
2022/08/13 01:50:53;;;;;;;23.73;9.77;;;;;;;18.10;77.75;100191.75;5110406;28;20135;-48
2022/08/13 01:53:19;;;;;;;31.75;11.48;;;;;;;18.10;77.62;100193.53;5109986;28;20121;-49
2022/08/13 01:55:48;;;;;;;30.38;10.30;;;;;;;18.08;77.86;100201.53;5110063;28;20043;-49
2022/08/13 01:58:22;;;;;;;;;;;;;;;18.08;77.75;100198.03;5110723;28;20043;-48
2022/08/13 02:01:00;;;;;;;30.98;9.93;;;;;;;18.02;78.14;100193.97;5110938;28;19915;-47
2022/08/13 02:03:27;;;;;;;25.77;8.70;;;;;;;18.01;77.88;100197.53;5113987;28;20052;-47
2022/08/13 02:05:55;;;;;;;25.52;8.90;;;;;;;18.02;78.17;100191.34;5113792;28;20664;-50
2022/08/13 02:08:23;;;;;;;26.73;9.48;;;;;;;18.04;78.15;100200.00;5113782;28;20035;-46
2022/08/13 02:10:54;;;;;;;18.05;9.20;;;;;;;17.95;78.34;100176.81;5113614;28;20040;-48
2022/08/13 02:13:29;;;;;;;20.10;8.90;;;;;;;18.04;78.37;100186.00;5113635;28;20517;-49
2022/08/13 02:15:56;;;;;;;27.85;9.15;;;;;;;18.06;78.67;100187.59;5113678;28;20529;-46
2022/08/13 02:18:24;;;;;;;31.15;9.45;;;;;;;18.08;78.51;100190.13;5113512;28;20174;-46
2022/08/13 02:20:53;;;;;;;32.30;9.32;;;;;;;18.09;78.64;100186.59;5113457;28;20123;-47
2022/08/13 02:23:22;;;;;;;24.08;8.80;;;;;;;18.10;78.48;100183.88;5113450;28;20031;-46
2022/08/13 02:25:50;;;;;;;23.13;9.40;;;;;;;18.15;78.54;100188.88;5095099;28;20047;-48
2022/08/13 02:28:19;;;;;;;22.00;9.50;;;;;;;17.99;78.34;100161.72;5112048;28;20035;-48
2022/08/13 02:30:47;;;;;;;23.30;9.80;;;;;;;18.17;78.61;100190.47;5094950;28;20055;-48
2022/08/13 02:33:13;;;;;;;21.60;9.90;;;;;;;18.18;79.01;100199.22;5095091;28;20054;-46
2022/08/13 02:35:40;;;;;;;15.70;9.40;;;;;;;18.17;79.12;100195.72;5111684;28;20047;-52
2022/08/13 02:38:06;;;;;;;19.73;9.85;;;;;;;18.16;79.49;100187.94;5111871;28;20080;-48
2022/08/13 02:43:17;;;;;;;22.85;10.20;;;;;;;18.20;79.67;100189.44;5112029;28;20530;-49
2022/08/13 02:45:45;;;;;;;18.80;9.88;;;;;;;18.21;79.85;100189.34;5111707;28;20371;-48
2022/08/13 02:48:11;;;;;;;17.60;9.15;;;;;;;18.25;80.08;100190.03;5111818;28;20031;-49
2022/08/13 02:50:44;;;;;;;16.58;8.52;;;;;;;18.28;80.30;100189.00;5112975;28;20100;-47
2022/08/13 02:53:10;;;;;;;19.92;9.30;;;;;;;18.29;80.52;100194.19;5111202;28;20096;-47
2022/08/13 02:55:38;;;;;;;15.73;8.20;;;;;;;18.24;80.61;100183.06;5112897;28;20083;-47
2022/08/13 02:58:04;;;;;;;13.77;8.15;;;;;;;18.33;80.81;100194.84;5112820;28;20122;-49
2022/08/13 03:00:30;;;;;;;18.27;8.77;;;;;;;18.36;80.81;100198.16;5112829;28;20043;-49
2022/08/13 03:02:57;;;;;;;19.52;8.13;;;;;;;18.39;80.93;100197.13;5112827;28;20047;-45
2022/08/13 03:05:30;;;;;;;17.05;8.13;;;;;;;18.42;81.08;100196.97;5112598;27;20039;-46
2022/08/13 03:07:55;;;;;;;14.25;8.43;;;;;;;18.44;81.08;100195.06;5112661;28;20042;-48
2022/08/13 03:10:25;;;;;;;17.30;8.35;;;;;;;18.48;81.17;100193.94;5112497;28;20135;-52
2022/08/13 03:12:58;;;;;;;18.98;9.25;;;;;;;18.29;81.18;100156.47;5112133;28;20590;-48
2022/08/13 03:15:27;;;;;;;11.35;7.47;;;;;;;18.51;81.23;100188.50;5111187;28;20047;-49
2022/08/13 03:17:53;;;;;;;13.77;7.65;;;;;;;18.62;81.06;100204.56;5112448;28;20036;-47
2022/08/13 03:20:20;;;;;;;16.58;8.05;;;;;;;18.60;80.97;100175.66;5112359;28;20054;-47
2022/08/13 03:22:55;;;;;;;18.48;8.55;;;;;;;18.74;80.63;100202.97;5112328;28;20065;-46
2022/08/13 03:25:22;;;;;;;16.65;7.95;;;;;;;18.77;80.13;100195.75;5112226;28;20415;-49
2022/08/13 03:27:52;;;;;;;15.45;8.18;;;;;;;18.81;79.96;100196.41;5112089;28;20507;-50
2022/08/13 03:30:18;;;;;;;12.52;7.35;;;;;;;18.68;79.70;100164.69;5112147;28;20126;-47
2022/08/13 03:32:45;;;;;;;16.33;8.32;;;;;;;18.88;79.24;100195.94;5110664;28;20084;-47
2022/08/13 03:35:12;;;;;;;21.55;7.93;;;;;;;18.92;79.02;100196.59;5111862;28;20583;-48
2022/08/13 03:37:39;;;;;;;12.10;7.78;;;;;;;18.80;78.78;100174.47;5090319;28;20044;-47
2022/08/13 03:40:06;;;;;;;11.73;7.97;;;;;;;19.00;78.47;100199.59;5073428;28;20043;-48
2022/08/13 03:42:34;;;;;;;19.65;7.35;;;;;;;19.05;78.37;100198.38;5091607;28;20411;-47
2022/08/13 03:45:02;;;;;;;17.42;7.07;;;;;;;19.12;78.24;100195.38;5091598;28;20117;-44
2022/08/13 03:47:30;;;;;;;16.13;7.50;;;;;;;19.18;77.81;100202.91;5091441;28;20044;-49
2022/08/13 03:50:02;;;;;;;19.23;8.38;;;;;;;19.25;77.65;100204.25;5073584;28;20313;-50
2022/08/13 03:52:33;;;;;;;18.80;8.18;;;;;;;19.32;77.44;100200.28;5089894;28;20048;-48
2022/08/13 03:55:00;;;;;;;18.60;9.13;;;;;;;19.38;77.13;100207.81;5090385;28;20066;-47
2022/08/13 03:57:26;;;;;;;14.77;7.88;;;;;;;19.44;76.72;100203.03;5089920;28;20073;-47
2022/08/13 03:59:52;;;;;;;18.73;8.30;;;;;;;19.50;76.46;100196.53;5091230;28;20035;-48
2022/08/13 04:02:19;;;;;;;20.00;8.52;;;;;;;19.56;76.33;100196.16;5091090;28;20100;-47
2022/08/13 04:04:47;;;;;;;12.95;7.70;;;;;;;19.32;75.75;100145.75;5091284;28;20050;-47
2022/08/13 04:07:22;;;;;;;11.80;6.80;;;;;;;19.69;74.73;100209.41;5089829;28;20511;-49
2022/08/13 04:09:48;;;;;;;12.65;6.53;;;;;;;19.74;73.56;100200.25;5090966;28;20419;-48
2022/08/13 04:12:15;;;;;;;15.98;7.20;;;;;;;19.81;72.42;100193.63;5090664;28;20044;-49
2022/08/13 04:14:42;;;;;;;12.40;7.28;;;;;;;19.74;71.77;100179.13;5090989;28;20044;-50
2022/08/13 04:17:10;;;;;;;11.65;6.20;;;;;;;19.94;71.45;100198.94;5090528;28;20044;-46
2022/08/13 04:19:42;;;;;;;15.32;6.93;;;;;;;20.00;70.93;100193.28;5090724;28;20035;-46
2022/08/13 04:22:13;;;;;;;9.70;6.25;;;;;;;20.09;70.42;100197.13;5090890;28;20040;-47
2022/08/13 04:24:43;;;;;;;14.55;6.10;;;;;;;20.13;70.16;100188.91;5090330;28;20035;-45
2022/08/13 04:27:10;;;;;;;12.50;6.45;;;;;;;20.23;69.82;100195.28;5090715;28;20545;-50
2022/08/13 04:29:36;;;;;;;12.10;6.90;;;;;;;20.33;69.11;100200.81;5090762;28;20047;-47
2022/08/13 04:32:03;;;;;;;13.10;6.32;;;;;;;20.39;69.14;100189.00;5090638;28;20036;-47
2022/08/13 04:34:29;;;;;;;18.10;6.78;;;;;;;20.46;68.73;100188.50;5092426;28;20050;-49
2022/08/13 04:36:56;;;;;;;12.95;7.03;;;;;;;20.52;68.66;100192.50;5109632;28;20035;-48
2022/08/13 04:39:24;;;;;;;11.63;6.43;;;;;;;20.28;68.41;100150.06;5110862;28;20039;-48
2022/08/13 04:41:49;;;;;;;15.77;7.10;;;;;;;20.41;68.34;100158.06;5109688;28;20423;-46
2022/08/13 04:44:15;;;;;;;10.70;5.78;;;;;;;20.70;67.58;100196.56;5110878;28;20039;-47
2022/08/13 04:46:42;;;;;;;7.50;4.32;;;;;;;20.77;66.78;100189.91;5109563;28;20127;-47
2022/08/13 04:49:11;;;;;;;15.07;5.60;;;;;;;20.87;65.66;100192.78;5109071;28;20047;-50
2022/08/13 04:51:37;;;;;;;11.10;4.63;;;;;;;20.93;65.12;100187.91;5092396;28;20051;-49
2022/08/13 04:54:03;;;;;;;8.23;4.38;;;;;;;21.02;64.31;100192.56;5109579;28;20837;-48
2022/08/13 04:56:29;;;;;;;10.25;4.80;;;;;;;21.09;63.50;100185.06;5110759;28;20078;-49
2022/08/13 04:58:56;;;;;;;13.18;4.90;;;;;;;21.11;62.84;100165.47;5109619;28;20039;-49
2022/08/13 05:01:22;;;;;;;12.63;4.53;;;;;;;21.25;62.21;100175.09;5110529;28;20504;-47
2022/08/13 05:03:48;;;;;;;11.63;5.32;;;;;;;21.33;61.54;100182.50;5109311;28;20071;-46
2022/08/13 05:06:21;;;;;;;11.73;5.40;;;;;;;21.40;60.92;100174.03;5109481;28;20118;-49
2022/08/13 05:08:48;;;;;;;10.80;5.50;;;;;;;21.47;60.36;100171.78;5110651;28;20051;-50
2022/08/13 05:11:15;;;;;;;18.25;6.03;;;;;;;21.40;59.83;100146.75;5109175;28;20036;-48
2022/08/13 05:13:43;;;;;;;21.13;5.72;;;;;;;21.53;59.27;100156.31;5110534;28;20127;-49
2022/08/13 05:16:13;;;;;;;19.45;6.43;;;;;;;21.72;59.22;100170.88;5110458;28;20554;-50
2022/08/13 05:18:52;;;;;;;16.10;6.25;;;;;;;21.83;59.05;100173.56;5110582;28;20168;-49
2022/08/13 05:21:21;;;;;;;15.93;6.25;;;;;;;21.92;58.69;100171.13;5110642;28;20050;-48
2022/08/13 05:23:55;;;;;;;23.15;6.90;;;;;;;22.04;58.54;100163.22;5109400;28;20051;-47
2022/08/13 05:26:24;;;;;;;15.45;5.38;;;;;;;22.13;58.08;100163.41;5092590;28;20499;-47
2022/08/13 05:28:50;;;;;;;12.25;5.45;;;;;;;22.24;57.81;100170.56;5109246;28;20092;-49
2022/08/13 05:31:17;;;;;;;14.40;6.38;;;;;;;22.36;57.15;100167.81;5110254;28;20571;-48
2022/08/13 05:33:44;;;;;;;19.80;4.70;;;;;;;22.48;56.77;100166.06;5110328;28;20052;-48
2022/08/13 05:36:11;;;;;;;12.20;5.07;;;;;;;22.60;56.17;100159.84;5111449;28;20511;-49
2022/08/13 05:38:37;;;;;;;14.90;5.78;;;;;;;22.58;55.70;100134.41;5113195;28;20043;-46
2022/08/13 05:41:06;;;;;;;11.30;4.60;;;;;;;22.86;55.58;100165.81;5114158;28;20039;-48
2022/08/13 05:43:35;;;;;;;9.98;4.47;;;;;;;22.96;55.09;100168.59;5112893;28;20047;-45
2022/08/13 05:46:05;;;;;;;11.55;4.80;;;;;;;23.08;54.72;100168.47;5114136;28;20133;-51
2022/08/13 05:48:58;;;;;;;10.90;4.43;;;;;;;23.19;54.37;100164.97;5114084;28;20112;-49
2022/08/13 05:51:28;;;;;;;11.98;4.63;;;;;;;23.27;53.77;100175.81;5113823;27;20035;-50
2022/08/13 05:53:59;;;;;;;9.65;3.10;;;;;;;23.36;53.20;100175.09;5113465;28;20039;-50
2022/08/13 05:56:25;;;;;;;9.52;3.95;;;;;;;23.47;52.52;100180.44;5078946;28;20134;-47
2022/08/13 05:58:52;;;;;;;10.15;3.92;;;;;;;23.55;52.44;100182.47;5113639;28;20042;-47
2022/08/13 06:04:11;;;;;;;10.20;4.20;;;;;;;23.79;51.60;100177.00;5111770;28;20097;-50
2022/08/13 06:06:40;;;;;;;12.45;3.30;;;;;;;23.66;51.58;100142.59;5111395;28;20092;-49
2022/08/13 06:09:08;;;;;;;12.23;5.82;;;;;;;24.06;51.39;100190.69;5113391;28;20047;-46
2022/08/13 06:11:36;;;;;;;7.85;3.00;;;;;;;24.18;50.57;100183.56;5111184;28;20046;-49
2022/08/13 06:14:02;;;;;;;5.22;2.70;;;;;;;24.33;50.01;100184.94;5109242;28;20055;-48
2022/08/13 06:16:28;;;;;;;7.72;3.45;;;;;;;24.48;49.58;100184.50;5111491;28;20036;-51
2022/08/13 06:18:57;;;;;;;4.47;2.80;;;;;;;24.56;48.83;100186.50;5111799;28;20054;-53
2022/08/13 06:21:24;;;;;;;7.30;3.00;;;;;;;24.73;48.64;100175.28;5113291;28;20447;-57
2022/08/13 06:23:51;;;;;;;6.32;3.83;;;;;;;24.98;47.91;100184.69;5112359;28;20043;-51
2022/08/13 06:26:20;;;;;;;6.20;2.72;;;;;;;25.26;47.07;100156.53;5112668;28;20040;-50
2022/08/13 06:28:53;;;;;;;7.70;3.15;;;;;;;26.22;45.42;100185.19;5111225;28;20066;-54
2022/08/13 06:31:30;;;;;;;7.57;3.63;;;;;;;27.23;43.62;100182.78;5109803;28;20507;-52
2022/08/13 06:33:56;;;;;;;6.72;3.13;;;;;;;28.26;42.19;100190.53;5111007;28;20816;-51
2022/08/13 06:36:28;;;;;;;10.05;3.97;;;;;;;29.10;40.55;100191.66;5109819;28;20055;-51
2022/08/13 06:38:56;;;;;;;4.80;2.50;;;;;;;29.93;38.61;100191.91;5111658;28;20456;-54
2022/08/13 06:41:23;;;;;;;16.17;3.15;;;;;;;30.82;37.52;100202.69;5112090;28;20058;-50
2022/08/13 06:43:51;;;;;;;10.95;3.53;;;;;;;31.68;35.82;100202.81;5111034;28;20043;-52
2022/08/13 06:46:20;;;;;;;6.55;3.10;;;;;;;32.52;34.68;100204.63;5112198;28;20039;-55
2022/08/13 06:48:46;;;;;;;5.82;3.20;;;;;;;32.97;33.42;100163.31;5111255;28;20043;-57
2022/08/13 06:51:13;;;;;;;7.75;3.80;;;;;;;33.54;32.63;100198.53;5112597;28;20568;-58
2022/08/13 06:53:41;;;;;;;6.95;2.70;;;;;;;34.07;31.49;100194.63;5112612;28;20090;-51
2022/08/13 06:56:12;;;;;;;5.78;2.30;;;;;;;34.66;29.33;100197.88;5112211;28;20055;-51
2022/08/13 06:58:39;;;;;;;3.42;2.60;;;;;;;35.71;28.13;100197.75;5111564;28;20042;-48
2022/08/13 07:01:05;;;;;;;2.92;2.25;;;;;;;36.57;26.38;100198.78;5112303;28;20126;-48
